Time;durP1;ratioP1;P1;durP2;ratioP2;P2;SDS_P1;SDS_P2;PMS_P1;PMS_P2;Temp;Humidity;BMP_temperature;BMP_pressure;BME280_temperature;BME280_humidity;BME280_pressure;Samples;Min_cycle;Max_cycle;Signal;HPM_P1;HPM_P2
2022/12/19 00:01:56;;;;;;;0.90;0.90;;;;;;;;;;6369805;22;20665;-74
2022/12/19 00:04:22;;;;;;;0.90;0.90;;;;;;;;;;6369813;22;20171;-75
2022/12/19 00:06:48;;;;;;;0.90;0.90;;;;;;;;;;6369759;22;20156;-75
2022/12/19 00:09:14;;;;;;;1.00;1.00;;;;;;;;;;6369658;22;20200;-75
2022/12/19 00:11:40;;;;;;;0.90;0.90;;;;;;;;;;6370067;22;20144;-75
2022/12/19 00:14:06;;;;;;;0.90;0.90;;;;;;;;;;6368994;22;20634;-75
2022/12/19 00:16:32;;;;;;;0.90;0.90;;;;;;;;;;6370054;22;20242;-74
2022/12/19 00:18:59;;;;;;;1.00;1.00;;;;;;;;;;6369520;22;20180;-75
2022/12/19 00:21:29;;;;;;;0.80;0.80;;;;;;;;;;6369985;22;20172;-75
2022/12/19 00:23:56;;;;;;;0.90;0.90;;;;;;;;;;6369312;22;20168;-74
2022/12/19 00:26:24;;;;;;;0.90;0.90;;;;;;;;;;6369923;22;20203;-75
2022/12/19 00:28:51;;;;;;;1.00;1.00;;;;;;;;;;6369890;22;20201;-75
2022/12/19 00:31:18;;;;;;;0.90;0.90;;;;;;;;;;6369792;22;20159;-74
2022/12/19 00:33:44;;;;;;;0.90;0.90;;;;;;;;;;6369059;22;20172;-76
2022/12/19 00:36:11;;;;;;;1.00;1.00;;;;;;;;;;6369933;22;20280;-75
2022/12/19 00:38:37;;;;;;;0.90;0.90;;;;;;;;;;6369404;22;20154;-76
2022/12/19 00:41:11;;;;;;;0.90;0.90;;;;;;;;;;6369827;22;20184;-75
2022/12/19 00:43:37;;;;;;;0.90;0.90;;;;;;;;;;6369171;22;20198;-75
2022/12/19 00:46:08;;;;;;;0.90;0.90;;;;;;;;;;6369835;22;20560;-75
2022/12/19 00:48:34;;;;;;;0.90;0.90;;;;;;;;;;6369599;22;20189;-75
2022/12/19 00:51:04;;;;;;;0.80;0.80;;;;;;;;;;6369755;22;20152;-74
2022/12/19 00:53:30;;;;;;;1.00;1.00;;;;;;;;;;6368904;22;20175;-75
2022/12/19 00:55:56;;;;;;;0.90;0.90;;;;;;;;;;6369607;22;20156;-75
2022/12/19 00:58:22;;;;;;;0.90;0.90;;;;;;;;;;6369393;22;20186;-75
2022/12/19 01:00:48;;;;;;;0.90;0.90;;;;;;;;;;6369442;22;20184;-75
2022/12/19 01:03:14;;;;;;;1.00;1.00;;;;;;;;;;6368998;22;20183;-75
2022/12/19 01:05:40;;;;;;;0.93;0.93;;;;;;;;;;6369882;22;20156;-75
2022/12/19 01:08:06;;;;;;;1.00;1.00;;;;;;;;;;6370307;22;20163;-75
2022/12/19 01:10:32;;;;;;;1.00;1.00;;;;;;;;;;6370173;22;20197;-75
2022/12/19 01:12:59;;;;;;;0.90;0.90;;;;;;;;;;6368686;22;20168;-74
2022/12/19 01:15:25;;;;;;;0.90;0.90;;;;;;;;;;6369527;22;20234;-75
2022/12/19 01:17:51;;;;;;;0.90;0.90;;;;;;;;;;6369277;22;20624;-75
2022/12/19 01:20:18;;;;;;;1.00;1.00;;;;;;;;;;6369447;22;20187;-75
2022/12/19 01:22:44;;;;;;;0.90;0.90;;;;;;;;;;6368572;22;20148;-75
2022/12/19 01:25:10;;;;;;;0.90;0.90;;;;;;;;;;6369059;22;20243;-75
2022/12/19 01:27:36;;;;;;;0.90;0.90;;;;;;;;;;6369290;22;20155;-75
2022/12/19 01:30:03;;;;;;;1.00;1.00;;;;;;;;;;6369349;22;20194;-76
2022/12/19 01:32:29;;;;;;;0.97;0.97;;;;;;;;;;6368143;22;20484;-75
2022/12/19 01:34:55;;;;;;;1.07;1.07;;;;;;;;;;6369218;22;20152;-75
2022/12/19 01:37:21;;;;;;;0.90;0.90;;;;;;;;;;6369260;22;20148;-76
2022/12/19 01:39:47;;;;;;;1.00;1.00;;;;;;;;;;6368798;22;20513;-75
2022/12/19 01:42:17;;;;;;;0.93;0.93;;;;;;;;;;6368614;22;20204;-75
2022/12/19 01:45:15;;;;;;;0.90;0.90;;;;;;;;;;6368341;22;20164;-75
2022/12/19 01:47:46;;;;;;;1.00;1.00;;;;;;;;;;6299745;22;20179;-75
2022/12/19 01:50:17;;;;;;;1.00;1.00;;;;;;;;;;6368899;22;20599;-75
2022/12/19 01:52:43;;;;;;;0.90;0.90;;;;;;;;;;6367961;22;20213;-74
2022/12/19 01:55:10;;;;;;;1.00;1.00;;;;;;;;;;6369056;22;20177;-75
2022/12/19 01:57:37;;;;;;;0.90;0.90;;;;;;;;;;6368839;22;20187;-74
2022/12/19 02:00:03;;;;;;;0.90;0.90;;;;;;;;;;6368999;22;20544;-74
2022/12/19 02:02:32;;;;;;;0.90;0.90;;;;;;;;;;6368183;22;20147;-75
2022/12/19 02:05:00;;;;;;;0.90;0.90;;;;;;;;;;6368904;22;20152;-75
2022/12/19 02:07:27;;;;;;;0.90;0.90;;;;;;;;;;6368973;22;20512;-75
2022/12/19 02:09:54;;;;;;;1.00;1.00;;;;;;;;;;6368652;22;20691;-75
2022/12/19 02:12:21;;;;;;;0.90;0.90;;;;;;;;;;6368375;22;20151;-75
2022/12/19 02:14:47;;;;;;;1.00;1.00;;;;;;;;;;6368720;22;20168;-75
2022/12/19 02:17:16;;;;;;;1.00;1.00;;;;;;;;;;6368933;22;20151;-76
2022/12/19 02:20:01;;;;;;;0.87;0.87;;;;;;;;;;6368409;22;20152;-75
2022/12/19 02:22:40;;;;;;;0.90;0.90;;;;;;;;;;6368217;22;20224;-75
2022/12/19 02:25:11;;;;;;;0.90;0.90;;;;;;;;;;6368602;22;20212;-75
2022/12/19 02:27:56;;;;;;;0.90;0.90;;;;;;;;;;6368768;22;20148;-75
2022/12/19 02:30:44;;;;;;;1.03;1.03;;;;;;;;;;6368759;22;20148;-75
2022/12/19 02:33:13;;;;;;;0.90;0.90;;;;;;;;;;6368227;22;20234;-75
2022/12/19 02:35:46;;;;;;;0.90;0.90;;;;;;;;;;6368866;22;20152;-75
2022/12/19 02:38:18;;;;;;;0.90;0.90;;;;;;;;;;6369112;22;20151;-75
2022/12/19 02:41:05;;;;;;;1.00;1.00;;;;;;;;;;6368599;22;20183;-75
2022/12/19 02:43:33;;;;;;;0.90;0.90;;;;;;;;;;6368045;22;20194;-75
2022/12/19 02:46:01;;;;;;;0.90;0.90;;;;;;;;;;6368512;22;20147;-76
2022/12/19 02:48:27;;;;;;;1.00;1.00;;;;;;;;;;6368687;22;20152;-75
2022/12/19 02:50:53;;;;;;;0.90;0.90;;;;;;;;;;6368878;22;20175;-75
2022/12/19 02:53:19;;;;;;;0.90;0.90;;;;;;;;;;6368149;22;20168;-75
2022/12/19 02:55:54;;;;;;;0.90;0.90;;;;;;;;;;6370271;22;20158;-76
2022/12/19 02:58:23;;;;;;;1.00;1.00;;;;;;;;;;6370647;22;20185;-75
2022/12/19 03:01:04;;;;;;;0.90;0.90;;;;;;;;;;6370907;22;20228;-75
2022/12/19 03:03:44;;;;;;;0.90;0.90;;;;;;;;;;6370168;22;20198;-76
2022/12/19 03:06:13;;;;;;;1.00;1.00;;;;;;;;;;6371059;22;20160;-75
2022/12/19 03:08:48;;;;;;;1.00;1.00;;;;;;;;;;6370917;22;20148;-75
2022/12/19 03:11:15;;;;;;;0.90;0.90;;;;;;;;;;6370507;22;20144;-75
2022/12/19 03:13:43;;;;;;;1.00;1.00;;;;;;;;;;6369703;22;20179;-75
2022/12/19 03:16:10;;;;;;;0.90;0.90;;;;;;;;;;6370888;22;20546;-76
2022/12/19 03:18:37;;;;;;;1.00;1.00;;;;;;;;;;6370976;22;20175;-76
2022/12/19 03:21:15;;;;;;;1.00;1.00;;;;;;;;;;6370931;22;20175;-76
2022/12/19 03:23:42;;;;;;;0.90;0.90;;;;;;;;;;6370328;22;20175;-75
2022/12/19 03:26:10;;;;;;;1.00;1.00;;;;;;;;;;6370863;22;20185;-76
2022/12/19 03:28:39;;;;;;;1.00;1.00;;;;;;;;;;6370695;22;20159;-75
2022/12/19 03:31:06;;;;;;;0.90;0.90;;;;;;;;;;6370749;22;20224;-76
2022/12/19 03:33:34;;;;;;;0.90;0.90;;;;;;;;;;6370145;22;20254;-75
2022/12/19 03:36:03;;;;;;;0.90;0.90;;;;;;;;;;6370315;22;20144;-75
2022/12/19 03:38:30;;;;;;;1.00;1.00;;;;;;;;;;6371017;22;20200;-76
2022/12/19 03:40:57;;;;;;;1.00;1.00;;;;;;;;;;6370941;22;20187;-76
2022/12/19 03:43:23;;;;;;;0.80;0.80;;;;;;;;;;6370016;22;20172;-75
2022/12/19 03:45:55;;;;;;;1.00;1.00;;;;;;;;;;6371007;22;20174;-75
2022/12/19 03:48:24;;;;;;;0.90;0.90;;;;;;;;;;6375719;22;20181;-74
2022/12/19 03:50:58;;;;;;;0.80;0.80;;;;;;;;;;6386552;22;20157;-74
2022/12/19 03:53:31;;;;;;;0.97;0.97;;;;;;;;;;6383474;22;20228;-74
2022/12/19 03:56:05;;;;;;;0.90;0.90;;;;;;;;;;6383737;22;20144;-75
2022/12/19 03:58:33;;;;;;;1.00;1.00;;;;;;;;;;6254810;22;20580;-77
2022/12/19 04:01:00;;;;;;;0.90;0.90;;;;;;;;;;6209978;23;20184;-76
2022/12/19 04:06:31;;;;;;;0.83;0.83;;;;;;;;;;6207571;23;20222;-76
2022/12/19 04:08:58;;;;;;;0.90;0.90;;;;;;;;;;6209781;23;20155;-76
2022/12/19 04:11:24;;;;;;;0.90;0.90;;;;;;;;;;6210037;23;20227;-76
2022/12/19 04:13:57;;;;;;;0.90;0.90;;;;;;;;;;6209090;22;20273;-76
2022/12/19 04:16:29;;;;;;;0.90;0.90;;;;;;;;;;6209855;23;20218;-76
2022/12/19 04:19:00;;;;;;;0.90;0.90;;;;;;;;;;6209816;23;20139;-76
2022/12/19 04:21:35;;;;;;;0.90;0.90;;;;;;;;;;6209681;23;20183;-76
2022/12/19 04:24:05;;;;;;;0.93;0.93;;;;;;;;;;6208985;22;20182;-75
2022/12/19 04:26:33;;;;;;;1.07;1.07;;;;;;;;;;6209696;23;20155;-75
2022/12/19 04:29:01;;;;;;;1.00;1.00;;;;;;;;;;6209692;23;20147;-75
2022/12/19 04:31:28;;;;;;;1.00;1.00;;;;;;;;;;6209684;23;20167;-76
2022/12/19 04:33:54;;;;;;;0.90;0.90;;;;;;;;;;6209082;22;20695;-77
2022/12/19 04:36:19;;;;;;;0.90;0.90;;;;;;;;;;6209708;23;20186;-75
2022/12/19 04:38:45;;;;;;;0.90;0.90;;;;;;;;;;6209676;23;20151;-76
2022/12/19 04:41:11;;;;;;;1.00;1.00;;;;;;;;;;6209550;23;20240;-76
2022/12/19 04:43:37;;;;;;;0.90;0.90;;;;;;;;;;6209116;22;20179;-75
2022/12/19 04:46:03;;;;;;;0.90;0.90;;;;;;;;;;6209971;23;20162;-76
2022/12/19 04:48:29;;;;;;;1.00;1.00;;;;;;;;;;6214225;23;20147;-75
2022/12/19 04:50:56;;;;;;;1.00;1.00;;;;;;;;;;6217831;23;20628;-75
2022/12/19 04:53:22;;;;;;;0.90;0.90;;;;;;;;;;6220098;22;20171;-75
2022/12/19 04:55:48;;;;;;;0.83;0.83;;;;;;;;;;6209712;23;20159;-76
2022/12/19 04:58:14;;;;;;;0.80;0.80;;;;;;;;;;6209395;23;20174;-76
2022/12/19 05:00:39;;;;;;;0.90;0.90;;;;;;;;;;6209469;23;20251;-76
2022/12/19 05:03:05;;;;;;;0.97;0.97;;;;;;;;;;6208915;22;20622;-76
2022/12/19 05:05:31;;;;;;;0.90;0.90;;;;;;;;;;6208227;23;20155;-76
2022/12/19 05:07:57;;;;;;;0.90;0.90;;;;;;;;;;6209095;23;20864;-76
2022/12/19 05:10:23;;;;;;;0.90;0.90;;;;;;;;;;6209430;23;20147;-76
2022/12/19 05:12:49;;;;;;;1.00;1.00;;;;;;;;;;6208335;22;20543;-76
2022/12/19 05:15:15;;;;;;;0.90;0.90;;;;;;;;;;6209225;23;20150;-76
2022/12/19 05:17:41;;;;;;;0.80;0.80;;;;;;;;;;6209100;23;20152;-76
2022/12/19 05:20:08;;;;;;;0.80;0.80;;;;;;;;;;6208729;23;20219;-76
2022/12/19 05:22:34;;;;;;;0.90;0.90;;;;;;;;;;6208611;22;20158;-76
2022/12/19 05:25:00;;;;;;;0.90;0.90;;;;;;;;;;6209054;23;20518;-75
2022/12/19 05:27:26;;;;;;;0.90;0.90;;;;;;;;;;6209271;23;20178;-75
2022/12/19 05:29:52;;;;;;;0.97;0.97;;;;;;;;;;6208882;23;20197;-76
2022/12/19 05:32:18;;;;;;;0.90;0.90;;;;;;;;;;6208282;23;20163;-75
2022/12/19 05:34:43;;;;;;;0.80;0.80;;;;;;;;;;6209061;22;20175;-76
2022/12/19 05:37:09;;;;;;;0.90;0.90;;;;;;;;;;6210158;23;20204;-75
2022/12/19 05:39:35;;;;;;;0.83;0.83;;;;;;;;;;6209362;23;20475;-75
2022/12/19 05:42:01;;;;;;;0.90;0.90;;;;;;;;;;6206461;23;20565;-76
2022/12/19 05:44:27;;;;;;;0.90;0.90;;;;;;;;;;6208752;22;20367;-75
2022/12/19 05:46:53;;;;;;;1.00;1.00;;;;;;;;;;6209249;23;20151;-75
2022/12/19 05:49:28;;;;;;;0.87;0.87;;;;;;;;;;5068673;28;20614;-76
2022/12/19 05:51:54;;;;;;;0.90;0.90;;;;;;;;;;5068667;28;20194;-75
2022/12/19 05:54:20;;;;;;;0.90;0.90;;;;;;;;;;5068266;28;20194;-75
2022/12/19 05:56:46;;;;;;;0.90;0.90;;;;;;;;;;5067090;28;20182;-76
2022/12/19 05:59:12;;;;;;;1.00;1.00;;;;;;;;;;5068472;28;20640;-76
2022/12/19 06:01:38;;;;;;;0.90;0.90;;;;;;;;;;5068460;28;20185;-75
2022/12/19 06:04:04;;;;;;;0.93;0.93;;;;;;;;;;5067423;28;20195;-75
2022/12/19 06:06:30;;;;;;;0.90;0.90;;;;;;;;;;5068370;28;20186;-75
2022/12/19 06:08:57;;;;;;;0.90;0.90;;;;;;;;;;5068113;28;20211;-75
2022/12/19 06:11:23;;;;;;;0.80;0.80;;;;;;;;;;5068220;28;20178;-75
2022/12/19 06:13:50;;;;;;;0.90;0.90;;;;;;;;;;5067695;28;20206;-76
2022/12/19 06:16:17;;;;;;;0.80;0.80;;;;;;;;;;5068097;28;20177;-76
2022/12/19 06:18:43;;;;;;;0.80;0.80;;;;;;;;;;5067878;28;20628;-76
2022/12/19 06:21:10;;;;;;;0.90;0.90;;;;;;;;;;5067788;28;20174;-76
2022/12/19 06:23:36;;;;;;;0.80;0.80;;;;;;;;;;5067437;28;20230;-76
2022/12/19 06:26:04;;;;;;;0.90;0.90;;;;;;;;;;5067419;28;20538;-74
2022/12/19 06:28:30;;;;;;;0.83;0.83;;;;;;;;;;5064038;28;20218;-74
2022/12/19 06:30:57;;;;;;;0.80;0.80;;;;;;;;;;5047727;28;20179;-74
2022/12/19 06:33:23;;;;;;;0.90;0.90;;;;;;;;;;5057154;28;20210;-75
2022/12/19 06:35:56;;;;;;;0.90;0.90;;;;;;;;;;5063798;28;20285;-74
2022/12/19 06:38:22;;;;;;;0.90;0.90;;;;;;;;;;5065486;28;20175;-75
2022/12/19 06:43:33;;;;;;;0.80;0.80;;;;;;;;;;5046895;28;20218;-76
2022/12/19 06:45:58;;;;;;;0.87;0.87;;;;;;;;;;5047041;28;20641;-76
2022/12/19 06:48:26;;;;;;;0.80;0.80;;;;;;;;;;5046874;28;20307;-76
2022/12/19 06:50:52;;;;;;;0.90;0.90;;;;;;;;;;5061566;28;20171;-75
2022/12/19 06:53:19;;;;;;;0.90;0.90;;;;;;;;;;5065480;28;21120;-76
2022/12/19 06:55:45;;;;;;;0.90;0.90;;;;;;;;;;5066787;28;20219;-75
2022/12/19 06:58:11;;;;;;;0.80;0.80;;;;;;;;;;5057268;28;20266;-76
2022/12/19 07:00:37;;;;;;;0.90;0.90;;;;;;;;;;5054530;28;20178;-76
2022/12/19 07:03:05;;;;;;;0.90;0.90;;;;;;;;;;5053011;28;20188;-77
2022/12/19 07:05:31;;;;;;;1.00;1.00;;;;;;;;;;5053441;28;20266;-76
2022/12/19 07:07:57;;;;;;;0.80;0.80;;;;;;;;;;5050309;28;20269;-75
2022/12/19 07:10:23;;;;;;;0.80;0.80;;;;;;;;;;5041658;28;20176;-75
2022/12/19 07:12:49;;;;;;;0.80;0.80;;;;;;;;;;5036014;28;20192;-76
2022/12/19 07:15:15;;;;;;;1.00;1.00;;;;;;;;;;5033168;28;20283;-76
2022/12/19 07:17:41;;;;;;;0.80;0.80;;;;;;;;;;5033133;28;20711;-77
2022/12/19 07:20:07;;;;;;;1.00;1.00;;;;;;;;;;5033494;28;20179;-75
2022/12/19 07:22:34;;;;;;;0.90;0.90;;;;;;;;;;5031231;28;20659;-76
2022/12/19 07:25:01;;;;;;;0.90;0.90;;;;;;;;;;5032951;28;20180;-76
2022/12/19 07:27:28;;;;;;;0.87;0.87;;;;;;;;;;5032858;28;20204;-76
2022/12/19 07:29:54;;;;;;;1.00;1.00;;;;;;;;;;5033219;28;20600;-76
2022/12/19 07:32:20;;;;;;;0.90;0.90;;;;;;;;;;5032442;28;20179;-76
2022/12/19 07:34:46;;;;;;;0.90;0.90;;;;;;;;;;5032948;28;20309;-75
2022/12/19 07:37:12;;;;;;;0.80;0.80;;;;;;;;;;5032625;28;20257;-76
2022/12/19 07:39:38;;;;;;;0.90;0.90;;;;;;;;;;5032911;28;20184;-76
2022/12/19 07:42:04;;;;;;;0.90;0.90;;;;;;;;;;5032170;28;20183;-76
2022/12/19 07:44:30;;;;;;;0.90;0.90;;;;;;;;;;5032786;28;20280;-76
2022/12/19 07:46:56;;;;;;;1.00;1.00;;;;;;;;;;5033176;28;20270;-76
2022/12/19 07:49:22;;;;;;;0.90;0.90;;;;;;;;;;5032516;28;20303;-76
2022/12/19 07:51:48;;;;;;;0.90;0.90;;;;;;;;;;5032685;28;20222;-76
2022/12/19 07:54:14;;;;;;;0.90;0.90;;;;;;;;;;5032036;28;20214;-75
2022/12/19 07:56:40;;;;;;;0.90;0.90;;;;;;;;;;5032485;28;20176;-76
2022/12/19 07:59:06;;;;;;;0.80;0.80;;;;;;;;;;5032441;28;20541;-76
2022/12/19 08:01:32;;;;;;;1.00;1.00;;;;;;;;;;5032640;28;20635;-76
2022/12/19 08:03:58;;;;;;;0.90;0.90;;;;;;;;;;5031965;28;20196;-76
2022/12/19 08:06:25;;;;;;;0.90;0.90;;;;;;;;;;5044372;28;20179;-76
2022/12/19 08:08:51;;;;;;;1.00;1.00;;;;;;;;;;5052103;28;20234;-76
2022/12/19 08:11:18;;;;;;;1.00;1.00;;;;;;;;;;5050916;28;20182;-76
2022/12/19 08:13:45;;;;;;;0.90;0.90;;;;;;;;;;5051018;28;20230;-77
2022/12/19 08:16:11;;;;;;;1.00;1.00;;;;;;;;;;5032824;28;20180;-76
2022/12/19 08:18:37;;;;;;;0.90;0.90;;;;;;;;;;5032664;28;20518;-76
2022/12/19 08:21:03;;;;;;;0.90;0.90;;;;;;;;;;5032465;28;20233;-76
2022/12/19 08:23:29;;;;;;;0.80;0.80;;;;;;;;;;5037616;28;20226;-75
2022/12/19 08:26:02;;;;;;;0.90;0.90;;;;;;;;;;5049776;28;20178;-76
2022/12/19 08:28:28;;;;;;;0.90;0.90;;;;;;;;;;5052376;28;20252;-76
2022/12/19 08:30:54;;;;;;;1.00;1.00;;;;;;;;;;5052135;28;20174;-76
2022/12/19 08:33:20;;;;;;;1.00;1.00;;;;;;;;;;5051396;28;20294;-76
2022/12/19 08:35:46;;;;;;;0.90;0.90;;;;;;;;;;5051592;28;20194;-76
2022/12/19 08:38:12;;;;;;;0.90;0.90;;;;;;;;;;5051442;28;20650;-76
2022/12/19 08:40:38;;;;;;;0.90;0.90;;;;;;;;;;5051871;28;20186;-76
2022/12/19 08:43:04;;;;;;;0.90;0.90;;;;;;;;;;5050957;28;20207;-76
2022/12/19 08:45:30;;;;;;;0.90;0.90;;;;;;;;;;5051657;28;20178;-76
2022/12/19 08:47:56;;;;;;;1.00;1.00;;;;;;;;;;5051216;28;20222;-75
2022/12/19 08:50:22;;;;;;;0.90;0.90;;;;;;;;;;5051244;28;20274;-75
2022/12/19 08:52:48;;;;;;;1.00;1.00;;;;;;;;;;5050803;28;20233;-75
2022/12/19 08:55:14;;;;;;;0.90;0.90;;;;;;;;;;5051741;28;20206;-75
2022/12/19 08:57:40;;;;;;;0.90;0.90;;;;;;;;;;5051961;28;20179;-75
2022/12/19 09:00:07;;;;;;;0.90;0.90;;;;;;;;;;5052341;28;20187;-75
2022/12/19 09:02:33;;;;;;;0.90;0.90;;;;;;;;;;5052076;28;20179;-75
2022/12/19 09:04:59;;;;;;;0.90;0.90;;;;;;;;;;5051433;28;20186;-76
2022/12/19 09:07:25;;;;;;;1.00;1.00;;;;;;;;;;5049868;28;20301;-75
2022/12/19 09:09:51;;;;;;;1.00;1.00;;;;;;;;;;5051307;28;20183;-76
2022/12/19 09:12:17;;;;;;;1.00;1.00;;;;;;;;;;5050547;28;20179;-76
2022/12/19 09:14:43;;;;;;;0.90;0.90;;;;;;;;;;5051181;28;20187;-76
2022/12/19 09:17:09;;;;;;;0.90;0.90;;;;;;;;;;5051125;28;20636;-76
2022/12/19 09:19:35;;;;;;;0.90;0.90;;;;;;;;;;5063796;28;20251;-75
2022/12/19 09:22:01;;;;;;;0.90;0.90;;;;;;;;;;5061088;28;20179;-75
2022/12/19 09:24:27;;;;;;;0.90;0.90;;;;;;;;;;5051823;28;20198;-76
2022/12/19 09:26:53;;;;;;;0.97;0.97;;;;;;;;;;5051214;28;20183;-76
2022/12/19 09:29:19;;;;;;;0.90;0.90;;;;;;;;;;5038984;28;20580;-76
2022/12/19 09:31:45;;;;;;;0.90;0.90;;;;;;;;;;5047874;28;20202;-76
2022/12/19 09:34:11;;;;;;;0.90;0.90;;;;;;;;;;5050623;28;20222;-76
2022/12/19 09:36:37;;;;;;;0.90;0.90;;;;;;;;;;5050732;28;20807;-76
2022/12/19 09:39:03;;;;;;;0.97;0.97;;;;;;;;;;5050929;28;20202;-75
2022/12/19 09:41:46;;;;;;;0.80;0.80;;;2.50;1.00;;;;;;5050748;28;20179;-76
2022/12/19 09:44:21;;;;;;;0.80;0.80;;;3.60;99.90;;;;;;5050388;28;20194;-76
2022/12/19 09:46:53;;;;;;;0.90;0.90;;;4.00;1.00;;;;;;5051678;28;20264;-76
2022/12/19 09:49:27;;;;;;;0.70;0.70;;;4.30;1.00;;;;;;5045409;28;20226;-76
2022/12/19 09:51:56;;;;;;;0.80;0.80;;;4.40;1.00;;;;;;5064281;28;20185;-76
2022/12/19 09:54:34;;;;;;;0.80;0.80;;;4.60;99.90;;;;;;5053841;28;20191;-76
2022/12/19 09:57:05;;;;;;;0.80;0.80;;;4.60;1.00;;;;;;5061400;28;20175;-75
2022/12/19 09:59:47;;;;;;;0.70;0.70;;;4.60;52.80;;;;;;5065094;28;20675;-76
2022/12/19 10:02:48;;;;;;;0.80;0.80;;;4.50;1.00;;;;;;5061615;28;20178;-76
2022/12/19 10:05:37;;;;;;;0.70;0.70;;;4.50;99.90;;;;;;5031323;28;20222;-76
2022/12/19 10:08:14;;;;;;;0.70;0.70;;;4.60;99.90;;;;;;5049148;28;20687;-76
2022/12/19 10:11:02;;;;;;;0.80;0.80;;;4.70;1.00;;;;;;5057145;28;20186;-76
2022/12/19 10:13:49;;;;;;;0.70;0.70;;;4.70;1.00;;;;;;5046287;28;20636;-76
2022/12/19 10:16:18;;;;;;;0.70;0.70;;;4.70;99.90;;;;;;5045749;28;20328;-76
2022/12/19 10:18:46;;;;;;;0.80;0.80;;;4.80;1.00;;;;;;5067027;28;20182;-75
2022/12/19 10:21:24;;;;;;;0.77;0.77;;;4.80;1.00;;;;;;5050387;28;20583;-76
2022/12/19 10:24:09;;;;;;;0.80;0.80;;;4.60;1.00;;;;;;5064105;28;20198;-75
2022/12/19 10:26:49;;;;;;;0.90;0.90;;;4.60;1.00;;;;;;5040762;28;20189;-76
2022/12/19 10:29:39;;;;;;;0.80;0.80;;;4.60;99.90;;;;;;5060985;28;20273;-76
2022/12/19 10:32:12;;;;;;;0.87;0.87;;;4.60;99.90;;;;;;5054568;28;20180;-76
2022/12/19 10:34:43;;;;;;;0.80;0.80;;;4.70;99.90;;;;;;5041007;28;20187;-76
2022/12/19 10:37:24;;;;;;;0.70;0.70;;;4.60;1.00;;;;;;5045447;28;20202;-75
2022/12/19 10:40:23;;;;;;;0.70;0.70;;;4.20;1.00;;;;;;5063392;28;20179;-76
2022/12/19 10:43:10;;;;;;;0.80;0.80;;;4.20;1.00;;;;;;5043253;28;20219;-76
2022/12/19 10:45:49;;;;;;;0.80;0.80;;;4.20;99.90;;;;;;5058500;28;20175;-76
2022/12/19 10:48:20;;;;;;;0.80;0.80;;;4.30;99.90;;;;;;5057379;28;20215;-76
2022/12/19 10:50:46;;;;;;;0.87;0.87;;;4.50;99.90;;;;;;5066494;28;20191;-76
2022/12/19 10:53:13;;;;;;;0.80;0.80;;;4.60;46.70;;;;;;5051427;28;20199;-75
2022/12/19 10:55:50;;;;;;;0.80;0.80;;;4.90;99.90;;;;;;5045954;28;20657;-75
2022/12/19 10:58:23;;;;;;;0.83;0.83;;;4.90;99.90;;;;;;5043809;28;20183;-75
2022/12/19 11:01:00;;;;;;;0.73;0.73;;;4.80;1.00;;;;;;5047332;28;20186;-75
2022/12/19 11:03:25;;;;;;;0.73;0.73;;;4.80;1.00;;;;;;5044887;28;20222;-75
2022/12/19 11:05:53;;;;;;;0.87;0.87;;;4.90;1.00;;;;;;5041638;28;20622;-75
2022/12/19 11:08:36;;;;;;;0.70;0.70;;;4.90;1.00;;;;;;5036179;28;20253;-75
2022/12/19 11:11:04;;;;;;;0.80;0.80;;;5.00;1.00;;;;;;5047193;28;20183;-76
2022/12/19 11:13:32;;;;;;;0.90;0.90;;;5.00;99.90;;;;;;5048382;28;20211;-76
2022/12/19 11:16:00;;;;;;;0.80;0.80;;;4.70;53.90;;;;;;5048892;28;20218;-76
2022/12/19 11:18:44;;;;;;;0.80;0.80;;;4.60;99.90;;;;;;5046928;28;20206;-76
2022/12/19 11:21:18;;;;;;;0.70;0.70;;;4.70;1.00;;;;;;5062723;28;20190;-76
2022/12/19 11:23:58;;;;;;;0.70;0.70;;;5.00;99.90;;;;;;5058622;28;20196;-77
2022/12/19 11:26:34;;;;;;;0.70;0.70;;;5.20;62.90;;;;;;5070560;28;20167;-76
2022/12/19 11:29:22;;;;;;;0.80;0.80;;;5.20;1.00;;;;;;5061072;28;20190;-76
2022/12/19 11:32:02;;;;;;;0.70;0.70;;;5.50;1.00;;;;;;5035439;28;20226;-76
2022/12/19 11:34:35;;;;;;;0.70;0.70;;;5.80;1.00;;;;;;5063523;28;20284;-76
2022/12/19 11:37:03;;;;;;;0.70;0.70;;;6.10;99.90;;;;;;5032990;28;20184;-76
2022/12/19 11:39:39;;;;;;;0.70;0.70;;;6.40;1.00;;;;;;5037671;28;20271;-76
2022/12/19 11:42:14;;;;;;;0.70;0.70;;;6.70;1.00;;;;;;5072491;28;20197;-76
2022/12/19 11:44:51;;;;;;;0.70;0.70;;;7.00;99.90;;;;;;5072926;28;20692;-76
2022/12/19 11:47:39;;;;;;;0.67;0.67;;;7.00;99.90;;;;;;5072803;28;20301;-76
2022/12/19 11:50:20;;;;;;;0.60;0.60;;;6.90;99.90;;;;;;5072960;28;20225;-75
2022/12/19 11:52:56;;;;;;;0.70;0.70;;;6.80;1.00;;;;;;5066150;28;20232;-75
2022/12/19 11:55:40;;;;;;;0.70;0.70;;;6.90;1.00;;;;;;5053013;28;20171;-75
2022/12/19 11:58:11;;;;;;;0.70;0.70;;;7.10;99.90;;;;;;5053047;28;20175;-75
2022/12/19 12:00:53;;;;;;;0.70;0.70;;;7.00;99.90;;;;;;5052650;28;20705;-76
2022/12/19 12:03:37;;;;;;;0.60;0.60;;;6.90;99.90;;;;;;5052314;28;20281;-76
2022/12/19 12:06:28;;;;;;;0.70;0.70;;;6.80;99.90;;;;;;5051392;28;20205;-76
2022/12/19 12:09:12;;;;;;;0.70;0.70;;;6.90;99.90;;;;;;5052843;28;20781;-76
2022/12/19 12:11:44;;;;;;;0.63;0.63;;;6.70;99.90;;;;;;5052859;28;20181;-75
2022/12/19 12:14:09;;;;;;;0.60;0.60;;;6.60;1.00;;;;;;5052009;28;20226;-75
2022/12/19 12:17:09;;;;;;;0.63;0.63;;;6.40;1.00;;;;;;5052477;28;20270;-75
2022/12/19 12:19:54;;;;;;;0.80;0.80;;;;;;;;;;5042929;28;20210;-75
2022/12/19 12:22:23;;;;;;;0.60;0.60;;;;;;;;;;5034385;28;20747;-76
2022/12/19 12:24:58;;;;;;;0.70;0.70;;;;;;;;;;5032490;28;20210;-76
2022/12/19 12:27:27;;;;;;;0.77;0.77;;;;;;;;;;5032266;28;20179;-76
2022/12/19 12:30:02;;;;;;;0.60;0.60;;;;;;;;;;5032512;28;20188;-76
2022/12/19 12:32:28;;;;;;;0.80;0.80;;;;;;;;;;5031785;28;20250;-76
2022/12/19 12:35:17;;;;;;;0.70;0.70;;;;;;;;;;5032200;28;20609;-75
2022/12/19 12:38:01;;;;;;;0.70;0.70;;;;;;;;;;5036801;28;20717;-76
2022/12/19 12:40:45;;;;;;;0.80;0.80;;;;;;;;;;5051732;28;20198;-76
2022/12/19 12:43:27;;;;;;;0.70;0.70;;;;;;;;;;5046974;28;20190;-76
2022/12/19 12:45:53;;;;;;;0.70;0.70;;;;;;;;;;5053800;28;20175;-76
2022/12/19 12:48:31;;;;;;;0.70;0.70;;;;;;;;;;5064190;28;20229;-76
2022/12/19 12:50:58;;;;;;;0.70;0.70;;;;;;;;;;5064067;28;20231;-75
2022/12/19 12:53:26;;;;;;;0.70;0.70;;;;;;;;;;5054948;28;20252;-76
2022/12/19 12:55:54;;;;;;;0.70;0.70;;;;;;;;;;5068093;28;20262;-76
2022/12/19 12:58:38;;;;;;;0.80;0.80;;;;;;;;;;5058222;28;20171;-76
2022/12/19 13:01:27;;;;;;;0.70;0.70;;;;;;;;;;5057815;28;20183;-76
2022/12/19 13:04:05;;;;;;;0.80;0.80;;;;;;;;;;5034961;28;20204;-76
2022/12/19 13:06:39;;;;;;;0.70;0.70;;;;;;;;;;5062664;28;20201;-76
2022/12/19 13:09:07;;;;;;;0.70;0.70;;;;;;;;;;5064397;28;20234;-77
2022/12/19 13:14:38;;;;;;;0.80;0.80;;;;;;;;;;5053924;28;20309;-76
2022/12/19 13:17:04;;;;;;;0.90;0.90;;;;;;;;;;5050104;28;20317;-76
2022/12/19 13:19:31;;;;;;;0.90;0.90;;;;;;;;;;5068839;28;20225;-75
2022/12/19 13:22:00;;;;;;;0.80;0.80;;;;;;;;;;5057494;28;20170;-77
2022/12/19 13:24:36;;;;;;;0.80;0.80;;;;;;;;;;5064449;28;20206;-76
2022/12/19 13:27:02;;;;;;;0.70;0.70;;;;;;;;;;5068910;28;20208;-76
2022/12/19 13:29:30;;;;;;;0.70;0.70;;;;;;;;;;5055301;28;20244;-77
2022/12/19 13:32:09;;;;;;;0.70;0.70;;;;;;;;;;5065254;28;20202;-77
2022/12/19 13:34:36;;;;;;;0.70;0.70;;;;;;;;;;5052351;28;20198;-76
2022/12/19 13:37:22;;;;;;;0.80;0.80;;;;;;;;;;5053793;28;20175;-76
2022/12/19 13:39:51;;;;;;;0.80;0.80;;;;;;;;;;5041860;28;20187;-76
2022/12/19 13:45:12;;;;;;;0.73;0.73;;;;;;;;;;5049434;28;20212;-76
2022/12/19 13:47:40;;;;;;;0.70;0.70;;;;;;;;;;5067146;28;20211;-76
2022/12/19 13:50:14;;;;;;;0.80;0.80;;;;;;;;;;5057481;28;20185;-76
2022/12/19 13:52:40;;;;;;;0.70;0.70;;;;;;;;;;5058750;28;20221;-76
2022/12/19 13:55:13;;;;;;;0.80;0.80;;;;;;;;;;5065559;28;20187;-76
2022/12/19 13:57:39;;;;;;;0.80;0.80;;;;;;;;;;5054225;28;20662;-76
2022/12/19 14:00:10;;;;;;;0.80;0.80;;;;;;;;;;5079917;22;20585;-79
2022/12/19 14:02:41;;;;;;;0.70;0.70;;;;;;;;;;5065957;28;20214;-79
2022/12/19 14:05:19;;;;;;;0.70;0.70;;;;;;;;;;5054319;28;20171;-78
2022/12/19 14:07:45;;;;;;;0.80;0.80;;;;;;;;;;5061311;28;20910;-78
2022/12/19 14:10:16;;;;;;;0.70;0.70;;;;;;;;;;5065990;28;20242;-78
2022/12/19 14:15:38;;;;;;;0.80;0.80;;;;;;;;;;5069048;28;20228;-78
2022/12/19 14:18:22;;;;;;;0.63;0.63;;;;;;;;;;5055596;28;20236;-78
2022/12/19 14:20:50;;;;;;;0.77;0.77;;;;;;;;;;5055274;28;20695;-77
2022/12/19 14:23:16;;;;;;;0.70;0.70;;;;;;;;;;5055289;28;20203;-77
2022/12/19 14:25:42;;;;;;;0.80;0.80;;;;;;;;;;5055363;28;20240;-77
2022/12/19 14:28:12;;;;;;;0.80;0.80;;;;;;;;;;5054763;28;20217;-78
2022/12/19 14:30:40;;;;;;;0.77;0.77;;;;;;;;;;5055434;28;20520;-79
2022/12/19 14:33:13;;;;;;;0.80;0.80;;;;;;;;;;5054786;28;20229;-78
2022/12/19 14:35:44;;;;;;;0.70;0.70;;;;;;;;;;5055618;28;20164;-78
2022/12/19 14:38:14;;;;;;;0.80;0.80;;;;;;;;;;5055117;28;20517;-77
2022/12/19 14:40:40;;;;;;;0.70;0.70;;;;;;;;;;5055207;28;20182;-78
2022/12/19 14:43:39;;;;;;;0.90;0.90;;;;;;;;;;5054516;28;20199;-78
2022/12/19 14:46:10;;;;;;;0.80;0.80;;;;;;;;;;5055155;28;20228;-78
2022/12/19 14:49:03;;;;;;;0.90;0.90;;;;;;;;;;5054993;28;20203;-77
2022/12/19 14:51:36;;;;;;;0.70;0.70;;;;;;;;;;5051937;28;20199;-77
2022/12/19 14:54:03;;;;;;;0.70;0.70;;;;;;;;;;5054327;28;20272;-77
2022/12/19 14:56:31;;;;;;;0.80;0.80;;;;;;;;;;5055816;28;20221;-77